sensor_id;sensor_type;location;lat;lon;timestamp;temperature;humidity
563;DHT22;266;49.514;8.294;2023-06-26T00:01:24;19.20;99.90
563;DHT22;266;49.514;8.294;2023-06-26T00:03:53;19.30;99.90
563;DHT22;266;49.514;8.294;2023-06-26T00:06:21;19.30;99.90
563;DHT22;266;49.514;8.294;2023-06-26T00:08:51;19.30;99.90
563;DHT22;266;49.514;8.294;2023-06-26T00:11:19;19.40;99.90
563;DHT22;266;49.514;8.294;2023-06-26T00:13:47;19.40;99.90
563;DHT22;266;49.514;8.294;2023-06-26T00:16:15;19.40;99.90
563;DHT22;266;49.514;8.294;2023-06-26T00:18:43;19.40;99.90
563;DHT22;266;49.514;8.294;2023-06-26T00:21:12;19.40;99.90
563;DHT22;266;49.514;8.294;2023-06-26T00:23:40;19.40;99.90
563;DHT22;266;49.514;8.294;2023-06-26T00:26:08;19.30;99.90
563;DHT22;266;49.514;8.294;2023-06-26T00:28:37;19.20;99.90
563;DHT22;266;49.514;8.294;2023-06-26T00:31:04;19.00;99.90
563;DHT22;266;49.514;8.294;2023-06-26T00:33:32;18.80;99.90
563;DHT22;266;49.514;8.294;2023-06-26T00:36:00;18.70;99.90
563;DHT22;266;49.514;8.294;2023-06-26T00:38:30;18.60;99.90
563;DHT22;266;49.514;8.294;2023-06-26T00:40:58;18.40;99.90
563;DHT22;266;49.514;8.294;2023-06-26T00:43:26;18.30;99.90
563;DHT22;266;49.514;8.294;2023-06-26T00:45:54;18.30;99.90
563;DHT22;266;49.514;8.294;2023-06-26T00:48:22;18.20;99.90
563;DHT22;266;49.514;8.294;2023-06-26T00:50:50;18.00;99.90
563;DHT22;266;49.514;8.294;2023-06-26T00:53:18;18.00;99.90
563;DHT22;266;49.514;8.294;2023-06-26T00:55:47;18.00;99.90
563;DHT22;266;49.514;8.294;2023-06-26T00:58:15;18.00;99.90
563;DHT22;266;49.514;8.294;2023-06-26T01:00:43;18.00;99.90
563;DHT22;266;49.514;8.294;2023-06-26T01:03:12;18.00;99.90
563;DHT22;266;49.514;8.294;2023-06-26T01:05:40;17.80;99.90
563;DHT22;266;49.514;8.294;2023-06-26T01:08:12;17.80;99.90
563;DHT22;266;49.514;8.294;2023-06-26T01:10:40;17.70;99.90
563;DHT22;266;49.514;8.294;2023-06-26T01:13:11;17.60;99.90
563;DHT22;266;49.514;8.294;2023-06-26T01:15:40;17.50;99.90
563;DHT22;266;49.514;8.294;2023-06-26T01:18:08;17.40;99.90
563;DHT22;266;49.514;8.294;2023-06-26T01:20:37;17.40;99.90
563;DHT22;266;49.514;8.294;2023-06-26T01:23:15;17.40;99.90
563;DHT22;266;49.514;8.294;2023-06-26T01:25:56;17.30;99.90
563;DHT22;266;49.514;8.294;2023-06-26T01:28:28;17.30;99.90
563;DHT22;266;49.514;8.294;2023-06-26T01:30:57;17.20;99.90
563;DHT22;266;49.514;8.294;2023-06-26T01:33:25;17.20;99.90
563;DHT22;266;49.514;8.294;2023-06-26T01:35:54;17.00;99.90
563;DHT22;266;49.514;8.294;2023-06-26T01:38:22;17.00;99.90
563;DHT22;266;49.514;8.294;2023-06-26T01:40:51;16.80;99.90
563;DHT22;266;49.514;8.294;2023-06-26T01:43:24;16.80;99.90
563;DHT22;266;49.514;8.294;2023-06-26T01:45:59;16.70;99.90
563;DHT22;266;49.514;8.294;2023-06-26T01:48:33;16.70;99.90
563;DHT22;266;49.514;8.294;2023-06-26T01:51:02;16.70;99.90
563;DHT22;266;49.514;8.294;2023-06-26T01:53:35;16.60;99.90
563;DHT22;266;49.514;8.294;2023-06-26T01:56:07;16.70;99.90
563;DHT22;266;49.514;8.294;2023-06-26T01:58:38;16.80;99.90
563;DHT22;266;49.514;8.294;2023-06-26T02:01:09;16.80;99.90
563;DHT22;266;49.514;8.294;2023-06-26T02:03:37;16.80;99.90
563;DHT22;266;49.514;8.294;2023-06-26T02:06:05;16.70;99.90
563;DHT22;266;49.514;8.294;2023-06-26T02:08:34;16.80;99.90
563;DHT22;266;49.514;8.294;2023-06-26T02:11:03;16.70;99.90
563;DHT22;266;49.514;8.294;2023-06-26T02:13:31;16.80;99.90
563;DHT22;266;49.514;8.294;2023-06-26T02:15:59;16.80;99.90
563;DHT22;266;49.514;8.294;2023-06-26T02:18:28;16.90;99.90
563;DHT22;266;49.514;8.294;2023-06-26T02:20:56;17.00;99.90
563;DHT22;266;49.514;8.294;2023-06-26T02:23:24;17.00;99.90
563;DHT22;266;49.514;8.294;2023-06-26T02:25:52;17.00;99.90
563;DHT22;266;49.514;8.294;2023-06-26T02:28:20;16.90;99.90
563;DHT22;266;49.514;8.294;2023-06-26T02:30:48;16.90;99.90
563;DHT22;266;49.514;8.294;2023-06-26T02:33:16;16.80;99.90
563;DHT22;266;49.514;8.294;2023-06-26T02:35:45;16.70;99.90
563;DHT22;266;49.514;8.294;2023-06-26T02:38:13;16.60;99.90
563;DHT22;266;49.514;8.294;2023-06-26T02:40:41;16.60;99.90
563;DHT22;266;49.514;8.294;2023-06-26T02:43:09;16.50;99.90
563;DHT22;266;49.514;8.294;2023-06-26T02:45:37;16.40;99.90
563;DHT22;266;49.514;8.294;2023-06-26T02:48:05;16.40;99.90
563;DHT22;266;49.514;8.294;2023-06-26T02:50:33;16.30;99.90
563;DHT22;266;49.514;8.294;2023-06-26T02:53:03;16.30;99.90
563;DHT22;266;49.514;8.294;2023-06-26T02:55:31;16.30;99.90
563;DHT22;266;49.514;8.294;2023-06-26T02:57:59;16.30;99.90
563;DHT22;266;49.514;8.294;2023-06-26T03:00:27;16.20;99.90
563;DHT22;266;49.514;8.294;2023-06-26T03:02:56;16.10;99.90
563;DHT22;266;49.514;8.294;2023-06-26T03:05:25;16.10;99.90
563;DHT22;266;49.514;8.294;2023-06-26T03:07:53;16.10;99.90
563;DHT22;266;49.514;8.294;2023-06-26T03:10:22;16.10;99.90
563;DHT22;266;49.514;8.294;2023-06-26T03:12:50;16.10;99.90
563;DHT22;266;49.514;8.294;2023-06-26T03:15:18;16.10;99.90
563;DHT22;266;49.514;8.294;2023-06-26T03:17:46;16.10;99.90
563;DHT22;266;49.514;8.294;2023-06-26T03:20:15;16.00;99.90
563;DHT22;266;49.514;8.294;2023-06-26T03:22:43;16.00;99.90
563;DHT22;266;49.514;8.294;2023-06-26T03:25:11;16.00;99.90
563;DHT22;266;49.514;8.294;2023-06-26T03:27:40;16.00;99.90
563;DHT22;266;49.514;8.294;2023-06-26T03:30:09;16.00;99.90
563;DHT22;266;49.514;8.294;2023-06-26T03:32:37;16.10;99.90
563;DHT22;266;49.514;8.294;2023-06-26T03:35:05;16.10;99.90
563;DHT22;266;49.514;8.294;2023-06-26T03:37:35;16.20;99.90
563;DHT22;266;49.514;8.294;2023-06-26T03:40:03;16.10;99.90
563;DHT22;266;49.514;8.294;2023-06-26T03:42:32;16.10;99.90
563;DHT22;266;49.514;8.294;2023-06-26T03:45:01;16.10;99.90
563;DHT22;266;49.514;8.294;2023-06-26T03:47:29;16.20;99.90
563;DHT22;266;49.514;8.294;2023-06-26T03:49:57;16.20;99.90
563;DHT22;266;49.514;8.294;2023-06-26T03:52:26;16.20;99.90
563;DHT22;266;49.514;8.294;2023-06-26T03:54:54;16.20;99.90
563;DHT22;266;49.514;8.294;2023-06-26T03:57:21;16.10;99.90
563;DHT22;266;49.514;8.294;2023-06-26T03:59:50;16.10;99.90
563;DHT22;266;49.514;8.294;2023-06-26T04:02:19;16.10;99.90
563;DHT22;266;49.514;8.294;2023-06-26T04:04:47;16.10;99.90
563;DHT22;266;49.514;8.294;2023-06-26T04:07:15;16.10;99.90
563;DHT22;266;49.514;8.294;2023-06-26T04:09:43;16.20;99.90
563;DHT22;266;49.514;8.294;2023-06-26T04:12:11;16.20;99.90
563;DHT22;266;49.514;8.294;2023-06-26T04:14:39;16.30;99.90
563;DHT22;266;49.514;8.294;2023-06-26T04:17:10;16.40;99.90
563;DHT22;266;49.514;8.294;2023-06-26T04:19:39;16.50;99.90
563;DHT22;266;49.514;8.294;2023-06-26T04:22:07;16.60;99.90
563;DHT22;266;49.514;8.294;2023-06-26T04:24:35;16.90;99.90
563;DHT22;266;49.514;8.294;2023-06-26T04:27:04;17.20;99.90
563;DHT22;266;49.514;8.294;2023-06-26T04:29:32;17.40;99.90
563;DHT22;266;49.514;8.294;2023-06-26T04:32:00;17.60;99.90
563;DHT22;266;49.514;8.294;2023-06-26T04:34:28;17.70;99.90
563;DHT22;266;49.514;8.294;2023-06-26T04:37:00;17.70;99.90
563;DHT22;266;49.514;8.294;2023-06-26T04:39:30;17.80;99.90
563;DHT22;266;49.514;8.294;2023-06-26T04:41:58;17.90;99.90
563;DHT22;266;49.514;8.294;2023-06-26T04:44:26;17.90;99.90
563;DHT22;266;49.514;8.294;2023-06-26T04:46:54;18.00;99.90
563;DHT22;266;49.514;8.294;2023-06-26T04:49:22;18.10;99.90
563;DHT22;266;49.514;8.294;2023-06-26T04:51:49;18.20;99.90
563;DHT22;266;49.514;8.294;2023-06-26T04:54:19;18.30;99.90
563;DHT22;266;49.514;8.294;2023-06-26T04:56:47;18.40;99.90
563;DHT22;266;49.514;8.294;2023-06-26T04:59:15;18.50;99.90
563;DHT22;266;49.514;8.294;2023-06-26T05:01:43;18.60;99.90
563;DHT22;266;49.514;8.294;2023-06-26T05:04:15;18.70;99.90
563;DHT22;266;49.514;8.294;2023-06-26T05:06:44;18.80;99.90
563;DHT22;266;49.514;8.294;2023-06-26T05:09:12;18.90;99.90
563;DHT22;266;49.514;8.294;2023-06-26T05:11:41;19.00;99.90
563;DHT22;266;49.514;8.294;2023-06-26T05:14:09;19.00;99.90
563;DHT22;266;49.514;8.294;2023-06-26T05:16:37;19.10;99.90
563;DHT22;266;49.514;8.294;2023-06-26T05:19:05;19.20;99.90
563;DHT22;266;49.514;8.294;2023-06-26T05:21:34;19.30;99.90
563;DHT22;266;49.514;8.294;2023-06-26T05:24:02;19.40;99.90
563;DHT22;266;49.514;8.294;2023-06-26T05:26:31;19.40;99.90
563;DHT22;266;49.514;8.294;2023-06-26T05:29:01;19.50;99.90
563;DHT22;266;49.514;8.294;2023-06-26T05:31:31;19.60;99.90
563;DHT22;266;49.514;8.294;2023-06-26T05:34:03;19.60;99.90
563;DHT22;266;49.514;8.294;2023-06-26T05:36:33;19.70;99.90
563;DHT22;266;49.514;8.294;2023-06-26T05:39:02;19.70;99.90
563;DHT22;266;49.514;8.294;2023-06-26T05:41:30;19.80;99.90
563;DHT22;266;49.514;8.294;2023-06-26T05:43:58;19.90;99.90
563;DHT22;266;49.514;8.294;2023-06-26T05:46:28;20.00;99.90
563;DHT22;266;49.514;8.294;2023-06-26T05:48:56;20.10;99.90
563;DHT22;266;49.514;8.294;2023-06-26T05:51:24;20.20;99.90
563;DHT22;266;49.514;8.294;2023-06-26T05:53:53;20.20;99.90
563;DHT22;266;49.514;8.294;2023-06-26T05:56:21;20.30;99.90
563;DHT22;266;49.514;8.294;2023-06-26T05:58:51;20.40;99.90
563;DHT22;266;49.514;8.294;2023-06-26T06:01:19;20.50;99.90
563;DHT22;266;49.514;8.294;2023-06-26T06:03:48;20.60;99.90
563;DHT22;266;49.514;8.294;2023-06-26T06:06:19;20.70;99.90
563;DHT22;266;49.514;8.294;2023-06-26T06:08:47;20.80;99.90
563;DHT22;266;49.514;8.294;2023-06-26T06:11:15;20.90;99.90
563;DHT22;266;49.514;8.294;2023-06-26T06:13:43;20.90;99.90
563;DHT22;266;49.514;8.294;2023-06-26T06:16:11;21.00;99.90
563;DHT22;266;49.514;8.294;2023-06-26T06:18:39;21.20;99.90
563;DHT22;266;49.514;8.294;2023-06-26T06:21:08;21.30;99.90
563;DHT22;266;49.514;8.294;2023-06-26T06:23:36;21.40;99.90
563;DHT22;266;49.514;8.294;2023-06-26T06:26:05;21.50;99.90
563;DHT22;266;49.514;8.294;2023-06-26T06:28:33;21.60;99.90
563;DHT22;266;49.514;8.294;2023-06-26T06:31:01;21.80;99.90
563;DHT22;266;49.514;8.294;2023-06-26T06:33:29;21.90;99.90
563;DHT22;266;49.514;8.294;2023-06-26T06:35:57;22.00;99.90
563;DHT22;266;49.514;8.294;2023-06-26T06:38:27;22.10;99.90
563;DHT22;266;49.514;8.294;2023-06-26T06:40:55;22.10;99.90
563;DHT22;266;49.514;8.294;2023-06-26T06:43:22;22.20;99.90
563;DHT22;266;49.514;8.294;2023-06-26T06:45:50;22.30;99.90
563;DHT22;266;49.514;8.294;2023-06-26T06:48:18;22.40;99.90
563;DHT22;266;49.514;8.294;2023-06-26T06:50:48;22.60;99.90
563;DHT22;266;49.514;8.294;2023-06-26T06:53:17;22.70;99.90
563;DHT22;266;49.514;8.294;2023-06-26T06:55:48;22.80;99.90
563;DHT22;266;49.514;8.294;2023-06-26T06:58:16;22.90;99.90
563;DHT22;266;49.514;8.294;2023-06-26T07:00:46;23.00;99.90
563;DHT22;266;49.514;8.294;2023-06-26T07:03:15;23.10;99.90
563;DHT22;266;49.514;8.294;2023-06-26T07:05:43;23.20;99.90
563;DHT22;266;49.514;8.294;2023-06-26T07:08:11;23.20;99.90
563;DHT22;266;49.514;8.294;2023-06-26T07:10:39;23.30;99.90
563;DHT22;266;49.514;8.294;2023-06-26T07:13:09;23.50;99.90
563;DHT22;266;49.514;8.294;2023-06-26T07:15:37;23.60;99.90
563;DHT22;266;49.514;8.294;2023-06-26T07:18:05;23.70;99.90
563;DHT22;266;49.514;8.294;2023-06-26T07:20:33;23.80;99.90
563;DHT22;266;49.514;8.294;2023-06-26T07:23:01;24.00;99.90
563;DHT22;266;49.514;8.294;2023-06-26T07:25:29;24.10;99.90
563;DHT22;266;49.514;8.294;2023-06-26T07:27:57;24.20;99.90
563;DHT22;266;49.514;8.294;2023-06-26T07:30:27;24.30;99.90
563;DHT22;266;49.514;8.294;2023-06-26T07:32:55;24.40;99.90
563;DHT22;266;49.514;8.294;2023-06-26T07:35:23;24.50;99.90
563;DHT22;266;49.514;8.294;2023-06-26T07:37:51;24.60;99.90
563;DHT22;266;49.514;8.294;2023-06-26T07:40:20;24.80;99.90
563;DHT22;266;49.514;8.294;2023-06-26T07:42:47;25.00;99.90
563;DHT22;266;49.514;8.294;2023-06-26T07:45:16;25.20;99.90
563;DHT22;266;49.514;8.294;2023-06-26T07:47:45;25.40;99.90
563;DHT22;266;49.514;8.294;2023-06-26T07:50:13;25.60;99.90
563;DHT22;266;49.514;8.294;2023-06-26T07:52:46;25.80;99.90
563;DHT22;266;49.514;8.294;2023-06-26T07:55:14;26.00;99.90
563;DHT22;266;49.514;8.294;2023-06-26T07:57:42;26.20;99.90
563;DHT22;266;49.514;8.294;2023-06-26T08:00:10;26.40;99.90
563;DHT22;266;49.514;8.294;2023-06-26T08:02:39;26.60;99.90
563;DHT22;266;49.514;8.294;2023-06-26T08:05:08;26.80;99.90
563;DHT22;266;49.514;8.294;2023-06-26T08:07:36;26.90;99.90
563;DHT22;266;49.514;8.294;2023-06-26T08:10:05;27.00;99.90
563;DHT22;266;49.514;8.294;2023-06-26T08:12:33;27.10;99.90
563;DHT22;266;49.514;8.294;2023-06-26T08:15:01;27.20;99.90
563;DHT22;266;49.514;8.294;2023-06-26T08:17:29;27.40;99.90
563;DHT22;266;49.514;8.294;2023-06-26T08:19:57;27.60;99.90
563;DHT22;266;49.514;8.294;2023-06-26T08:22:27;27.80;99.90
563;DHT22;266;49.514;8.294;2023-06-26T08:24:55;28.20;99.90
563;DHT22;266;49.514;8.294;2023-06-26T08:27:23;28.60;99.90
563;DHT22;266;49.514;8.294;2023-06-26T08:29:51;28.80;99.90
563;DHT22;266;49.514;8.294;2023-06-26T08:32:19;28.90;99.90
563;DHT22;266;49.514;8.294;2023-06-26T08:34:47;28.90;99.90
563;DHT22;266;49.514;8.294;2023-06-26T08:37:15;28.90;99.90
563;DHT22;266;49.514;8.294;2023-06-26T08:39:44;28.80;99.90
563;DHT22;266;49.514;8.294;2023-06-26T08:42:12;29.00;99.90
563;DHT22;266;49.514;8.294;2023-06-26T08:44:40;29.10;99.90
563;DHT22;266;49.514;8.294;2023-06-26T08:47:26;29.00;99.90
563;DHT22;266;49.514;8.294;2023-06-26T08:50:01;29.10;99.90
563;DHT22;266;49.514;8.294;2023-06-26T08:52:35;29.10;99.90
563;DHT22;266;49.514;8.294;2023-06-26T08:55:09;29.00;99.90
563;DHT22;266;49.514;8.294;2023-06-26T08:57:37;28.80;99.90
563;DHT22;266;49.514;8.294;2023-06-26T09:00:07;28.60;99.90
563;DHT22;266;49.514;8.294;2023-06-26T09:02:36;28.40;99.90
563;DHT22;266;49.514;8.294;2023-06-26T09:05:05;28.50;99.90
563;DHT22;266;49.514;8.294;2023-06-26T09:07:33;28.70;99.90
563;DHT22;266;49.514;8.294;2023-06-26T09:10:01;29.00;99.90
563;DHT22;266;49.514;8.294;2023-06-26T09:12:31;29.40;99.90
563;DHT22;266;49.514;8.294;2023-06-26T09:14:59;29.40;99.90
563;DHT22;266;49.514;8.294;2023-06-26T09:17:30;29.40;99.90
563;DHT22;266;49.514;8.294;2023-06-26T09:19:59;29.20;99.90
563;DHT22;266;49.514;8.294;2023-06-26T09:22:27;29.20;99.90
563;DHT22;266;49.514;8.294;2023-06-26T09:24:55;29.40;99.90
563;DHT22;266;49.514;8.294;2023-06-26T09:27:23;29.60;99.90
563;DHT22;266;49.514;8.294;2023-06-26T09:29:55;29.70;99.90
563;DHT22;266;49.514;8.294;2023-06-26T09:32:25;29.80;99.90
563;DHT22;266;49.514;8.294;2023-06-26T09:34:54;29.80;99.90
563;DHT22;266;49.514;8.294;2023-06-26T09:37:23;29.70;99.90
563;DHT22;266;49.514;8.294;2023-06-26T09:39:51;29.50;99.90
563;DHT22;266;49.514;8.294;2023-06-26T09:42:20;29.40;99.90
563;DHT22;266;49.514;8.294;2023-06-26T09:44:48;29.30;99.90
563;DHT22;266;49.514;8.294;2023-06-26T09:47:19;29.20;99.90
563;DHT22;266;49.514;8.294;2023-06-26T09:49:51;29.30;99.90
563;DHT22;266;49.514;8.294;2023-06-26T09:52:21;29.30;99.90
563;DHT22;266;49.514;8.294;2023-06-26T09:55:07;29.60;99.90
563;DHT22;266;49.514;8.294;2023-06-26T09:57:38;29.90;99.90
563;DHT22;266;49.514;8.294;2023-06-26T10:00:06;30.00;99.90
563;DHT22;266;49.514;8.294;2023-06-26T10:02:37;29.90;99.90
563;DHT22;266;49.514;8.294;2023-06-26T10:05:06;29.90;99.90
563;DHT22;266;49.514;8.294;2023-06-26T10:07:35;29.90;99.90
563;DHT22;266;49.514;8.294;2023-06-26T10:10:06;30.10;99.90
563;DHT22;266;49.514;8.294;2023-06-26T10:12:35;30.30;99.90
563;DHT22;266;49.514;8.294;2023-06-26T10:15:03;30.50;99.90
563;DHT22;266;49.514;8.294;2023-06-26T10:17:39;30.80;99.90
563;DHT22;266;49.514;8.294;2023-06-26T10:20:10;31.20;99.90
563;DHT22;266;49.514;8.294;2023-06-26T10:22:43;31.70;99.90
563;DHT22;266;49.514;8.294;2023-06-26T10:25:16;32.20;99.90
563;DHT22;266;49.514;8.294;2023-06-26T10:27:49;32.60;99.90
563;DHT22;266;49.514;8.294;2023-06-26T10:30:22;32.50;99.90
563;DHT22;266;49.514;8.294;2023-06-26T10:32:52;32.30;99.90
563;DHT22;266;49.514;8.294;2023-06-26T10:35:20;32.10;99.90
563;DHT22;266;49.514;8.294;2023-06-26T10:37:50;31.90;99.90
563;DHT22;266;49.514;8.294;2023-06-26T10:40:23;31.30;99.90
563;DHT22;266;49.514;8.294;2023-06-26T10:43:05;30.90;99.90
563;DHT22;266;49.514;8.294;2023-06-26T10:45:34;30.50;99.90
563;DHT22;266;49.514;8.294;2023-06-26T10:48:04;30.30;99.90
563;DHT22;266;49.514;8.294;2023-06-26T10:50:33;30.20;99.90
563;DHT22;266;49.514;8.294;2023-06-26T10:53:15;30.20;99.90
563;DHT22;266;49.514;8.294;2023-06-26T10:55:51;30.70;99.90
563;DHT22;266;49.514;8.294;2023-06-26T10:58:28;31.30;99.90
563;DHT22;266;49.514;8.294;2023-06-26T11:01:17;31.90;99.90
563;DHT22;266;49.514;8.294;2023-06-26T11:03:48;32.30;99.90
563;DHT22;266;49.514;8.294;2023-06-26T11:06:19;32.80;99.90
563;DHT22;266;49.514;8.294;2023-06-26T11:08:48;33.00;99.90
563;DHT22;266;49.514;8.294;2023-06-26T11:11:17;33.30;99.90
563;DHT22;266;49.514;8.294;2023-06-26T11:13:46;33.20;99.90
563;DHT22;266;49.514;8.294;2023-06-26T11:16:15;33.20;99.90
563;DHT22;266;49.514;8.294;2023-06-26T11:18:43;33.40;99.90
563;DHT22;266;49.514;8.294;2023-06-26T11:21:13;33.60;99.90
563;DHT22;266;49.514;8.294;2023-06-26T11:23:42;33.90;99.90
563;DHT22;266;49.514;8.294;2023-06-26T11:26:16;34.30;99.90
563;DHT22;266;49.514;8.294;2023-06-26T11:28:48;34.60;99.80
563;DHT22;266;49.514;8.294;2023-06-26T11:31:29;34.50;99.90
563;DHT22;266;49.514;8.294;2023-06-26T11:34:00;34.40;99.20
563;DHT22;266;49.514;8.294;2023-06-26T11:36:30;33.90;98.30
563;DHT22;266;49.514;8.294;2023-06-26T11:39:01;33.60;98.60
563;DHT22;266;49.514;8.294;2023-06-26T11:41:30;33.30;98.30
563;DHT22;266;49.514;8.294;2023-06-26T11:44:00;32.90;97.80
563;DHT22;266;49.514;8.294;2023-06-26T11:46:31;32.40;97.20
563;DHT22;266;49.514;8.294;2023-06-26T11:48:59;32.30;96.30
563;DHT22;266;49.514;8.294;2023-06-26T11:51:29;32.40;97.30
563;DHT22;266;49.514;8.294;2023-06-26T11:54:00;32.70;95.40
563;DHT22;266;49.514;8.294;2023-06-26T11:56:28;33.10;95.30
563;DHT22;266;49.514;8.294;2023-06-26T11:58:58;33.60;94.70
563;DHT22;266;49.514;8.294;2023-06-26T12:01:31;33.80;92.50
563;DHT22;266;49.514;8.294;2023-06-26T12:04:01;34.00;92.50
563;DHT22;266;49.514;8.294;2023-06-26T12:06:34;34.50;90.60
563;DHT22;266;49.514;8.294;2023-06-26T12:09:04;34.70;90.20
563;DHT22;266;49.514;8.294;2023-06-26T12:11:35;34.80;88.00
563;DHT22;266;49.514;8.294;2023-06-26T12:14:03;34.70;87.70
563;DHT22;266;49.514;8.294;2023-06-26T12:16:33;34.80;88.00
563;DHT22;266;49.514;8.294;2023-06-26T12:19:02;34.90;85.30
563;DHT22;266;49.514;8.294;2023-06-26T12:21:49;35.20;83.00
563;DHT22;266;49.514;8.294;2023-06-26T12:24:20;35.50;79.20
563;DHT22;266;49.514;8.294;2023-06-26T12:26:50;35.60;79.60
563;DHT22;266;49.514;8.294;2023-06-26T12:29:20;35.70;70.90
563;DHT22;266;49.514;8.294;2023-06-26T12:31:50;35.40;69.00
563;DHT22;266;49.514;8.294;2023-06-26T12:34:19;34.90;65.60
563;DHT22;266;49.514;8.294;2023-06-26T12:36:50;34.80;65.50
563;DHT22;266;49.514;8.294;2023-06-26T12:39:20;34.80;65.50
563;DHT22;266;49.514;8.294;2023-06-26T12:41:49;35.00;65.80
563;DHT22;266;49.514;8.294;2023-06-26T12:44:29;35.10;66.10
563;DHT22;266;49.514;8.294;2023-06-26T12:46:58;35.10;65.90
563;DHT22;266;49.514;8.294;2023-06-26T12:49:31;35.00;65.80
563;DHT22;266;49.514;8.294;2023-06-26T12:52:03;35.00;65.60
563;DHT22;266;49.514;8.294;2023-06-26T12:54:31;35.00;65.60
563;DHT22;266;49.514;8.294;2023-06-26T12:56:59;34.80;65.50
563;DHT22;266;49.514;8.294;2023-06-26T12:59:27;34.80;65.50
563;DHT22;266;49.514;8.294;2023-06-26T13:01:55;34.40;65.50
563;DHT22;266;49.514;8.294;2023-06-26T13:04:23;34.60;65.60
563;DHT22;266;49.514;8.294;2023-06-26T13:06:51;34.80;65.50
563;DHT22;266;49.514;8.294;2023-06-26T13:09:23;34.80;65.60
563;DHT22;266;49.514;8.294;2023-06-26T13:11:52;35.00;65.60
563;DHT22;266;49.514;8.294;2023-06-26T13:14:20;35.00;65.60
563;DHT22;266;49.514;8.294;2023-06-26T13:16:48;35.00;65.60
563;DHT22;266;49.514;8.294;2023-06-26T13:19:16;34.80;65.50
563;DHT22;266;49.514;8.294;2023-06-26T13:21:44;34.60;65.30
563;DHT22;266;49.514;8.294;2023-06-26T13:24:12;34.80;65.50
563;DHT22;266;49.514;8.294;2023-06-26T13:26:42;34.80;65.50
563;DHT22;266;49.514;8.294;2023-06-26T13:29:11;34.40;65.30
563;DHT22;266;49.514;8.294;2023-06-26T13:31:39;34.20;65.00
563;DHT22;266;49.514;8.294;2023-06-26T13:34:07;34.00;65.00
563;DHT22;266;49.514;8.294;2023-06-26T13:36:35;33.70;64.70
563;DHT22;266;49.514;8.294;2023-06-26T13:39:04;33.70;64.70
563;DHT22;266;49.514;8.294;2023-06-26T13:41:32;33.60;64.60
563;DHT22;266;49.514;8.294;2023-06-26T13:44:01;33.50;64.50
563;DHT22;266;49.514;8.294;2023-06-26T13:46:41;33.50;64.50
563;DHT22;266;49.514;8.294;2023-06-26T13:49:10;33.30;64.30
563;DHT22;266;49.514;8.294;2023-06-26T13:51:38;33.30;64.30
563;DHT22;266;49.514;8.294;2023-06-26T13:54:12;33.50;64.50
563;DHT22;266;49.514;8.294;2023-06-26T13:56:40;33.40;64.40
563;DHT22;266;49.514;8.294;2023-06-26T13:59:09;33.50;64.50
563;DHT22;266;49.514;8.294;2023-06-26T14:01:39;33.40;64.60
563;DHT22;266;49.514;8.294;2023-06-26T14:04:09;33.40;64.60
563;DHT22;266;49.514;8.294;2023-06-26T14:06:37;33.50;64.70
563;DHT22;266;49.514;8.294;2023-06-26T14:09:05;33.50;64.50
563;DHT22;266;49.514;8.294;2023-06-26T14:11:33;33.50;64.50
563;DHT22;266;49.514;8.294;2023-06-26T14:14:01;33.30;64.50
563;DHT22;266;49.514;8.294;2023-06-26T14:16:31;33.00;64.10
563;DHT22;266;49.514;8.294;2023-06-26T14:18:59;32.90;64.00
563;DHT22;266;49.514;8.294;2023-06-26T14:21:27;32.70;63.90
563;DHT22;266;49.514;8.294;2023-06-26T14:23:55;32.40;63.60
563;DHT22;266;49.514;8.294;2023-06-26T14:26:23;32.40;63.60
563;DHT22;266;49.514;8.294;2023-06-26T14:28:51;32.10;63.40
563;DHT22;266;49.514;8.294;2023-06-26T14:31:18;31.80;63.20
563;DHT22;266;49.514;8.294;2023-06-26T14:33:48;31.50;63.00
563;DHT22;266;49.514;8.294;2023-06-26T14:36:16;31.30;62.80
563;DHT22;266;49.514;8.294;2023-06-26T14:38:45;31.10;62.70
563;DHT22;266;49.514;8.294;2023-06-26T14:41:14;31.10;62.70
563;DHT22;266;49.514;8.294;2023-06-26T14:43:42;31.30;63.00
563;DHT22;266;49.514;8.294;2023-06-26T14:46:12;31.30;62.80
563;DHT22;266;49.514;8.294;2023-06-26T14:48:41;31.40;62.90
563;DHT22;266;49.514;8.294;2023-06-26T14:51:10;31.70;63.10
563;DHT22;266;49.514;8.294;2023-06-26T14:53:38;32.10;63.40
563;DHT22;266;49.514;8.294;2023-06-26T14:56:06;32.20;63.70
563;DHT22;266;49.514;8.294;2023-06-26T14:58:35;32.40;63.60
563;DHT22;266;49.514;8.294;2023-06-26T15:01:03;32.30;63.60
563;DHT22;266;49.514;8.294;2023-06-26T15:03:31;32.30;63.60
563;DHT22;266;49.514;8.294;2023-06-26T15:05:59;32.20;63.70
563;DHT22;266;49.514;8.294;2023-06-26T15:08:28;32.00;63.40
563;DHT22;266;49.514;8.294;2023-06-26T15:10:56;31.60;63.00
563;DHT22;266;49.514;8.294;2023-06-26T15:13:24;31.20;62.80
563;DHT22;266;49.514;8.294;2023-06-26T15:15:52;31.00;62.60
563;DHT22;266;49.514;8.294;2023-06-26T15:18:20;30.90;62.50
563;DHT22;266;49.514;8.294;2023-06-26T15:20:48;30.90;62.60
563;DHT22;266;49.514;8.294;2023-06-26T15:23:16;30.80;62.60
563;DHT22;266;49.514;8.294;2023-06-26T15:25:46;30.90;62.50
563;DHT22;266;49.514;8.294;2023-06-26T15:28:14;30.90;62.60
563;DHT22;266;49.514;8.294;2023-06-26T15:30:42;31.00;62.60
563;DHT22;266;49.514;8.294;2023-06-26T15:33:10;31.20;62.90
563;DHT22;266;49.514;8.294;2023-06-26T15:35:39;31.30;62.80
563;DHT22;266;49.514;8.294;2023-06-26T15:38:07;31.40;62.90
563;DHT22;266;49.514;8.294;2023-06-26T15:40:35;31.30;62.80
563;DHT22;266;49.514;8.294;2023-06-26T15:43:04;31.10;62.70
563;DHT22;266;49.514;8.294;2023-06-26T15:45:32;30.80;62.40
563;DHT22;266;49.514;8.294;2023-06-26T15:48:02;30.70;62.40
563;DHT22;266;49.514;8.294;2023-06-26T15:50:30;30.70;62.40
563;DHT22;266;49.514;8.294;2023-06-26T15:52:58;30.70;62.40
563;DHT22;266;49.514;8.294;2023-06-26T15:55:27;30.50;62.20
563;DHT22;266;49.514;8.294;2023-06-26T15:57:55;30.30;62.30
563;DHT22;266;49.514;8.294;2023-06-26T16:00:24;30.30;62.10
563;DHT22;266;49.514;8.294;2023-06-26T16:02:52;30.30;62.50
563;DHT22;266;49.514;8.294;2023-06-26T16:05:20;30.20;62.20
563;DHT22;266;49.514;8.294;2023-06-26T16:07:48;30.30;62.10
563;DHT22;266;49.514;8.294;2023-06-26T16:10:23;30.30;62.10
563;DHT22;266;49.514;8.294;2023-06-26T16:12:51;30.30;62.30
563;DHT22;266;49.514;8.294;2023-06-26T16:15:19;30.20;62.00
563;DHT22;266;49.514;8.294;2023-06-26T16:17:49;30.20;62.00
563;DHT22;266;49.514;8.294;2023-06-26T16:20:16;30.10;62.10
563;DHT22;266;49.514;8.294;2023-06-26T16:22:44;30.20;62.00
563;DHT22;266;49.514;8.294;2023-06-26T16:25:12;30.10;61.90
563;DHT22;266;49.514;8.294;2023-06-26T16:27:41;30.00;61.80
563;DHT22;266;49.514;8.294;2023-06-26T16:30:11;30.10;61.90
563;DHT22;266;49.514;8.294;2023-06-26T16:32:39;30.10;61.90
563;DHT22;266;49.514;8.294;2023-06-26T16:35:09;30.10;61.90
563;DHT22;266;49.514;8.294;2023-06-26T16:37:37;29.90;61.80
563;DHT22;266;49.514;8.294;2023-06-26T16:40:07;29.80;61.70
563;DHT22;266;49.514;8.294;2023-06-26T16:42:35;29.70;61.60
563;DHT22;266;49.514;8.294;2023-06-26T16:45:03;29.60;61.50
563;DHT22;266;49.514;8.294;2023-06-26T16:47:31;29.40;61.60